Nyk Deneb — 3EOF8 — position and weather

sailwx.info

Track history (hours):
 
Tides and Currents Weather Stations Pressure Air Temp Water Temp Dewpoint Dewpoint Depression Visibility Wind Speed Wind Dir Waves Ship Positions

Nyk Deneb

Last reported at 2014-Jul-17 08:06 UTC. Time now 2014-Jul-25 08:59 UTC.
Position N 32°02' W 080°50'.
Warning: this ship's position is 8 days out of date.

Length 294 m; draft 11.7 m.

Type: Ship (hazmat cat A). MMSI: 355717000.

Date/timePositionNaut miles runAvg speedWind from/ knotsBaromVisibWave heightAir tempDewpointWater temp
2014-Jul-17 08:06N 32°02' W 080°50'712.1
2014-Jul-17 07:34N 32°04' W 080°58'7 7.2
2014-Jul-17 06:34N 32°06' W 081°06'2 2.4
2014-Jul-17 05:31N 32°07' W 081°08'0 0.0
2014-Jul-16 23:31N 32°07' W 081°08'0 0.0
2014-Jul-16 22:31N 32°07' W 081°08'0 0.0
2014-Jul-16 21:22N 32°07' W 081°08'0 0.0
2014-Jul-16 20:28N 32°07' W 081°08'0 0.0
2014-Jul-16 18:19N 32°07' W 081°08'0 0.0
2014-Jul-16 17:30N 32°07' W 081°08'0 0.0
2014-Jul-16 16:09N 32°07' W 081°08'0 0.0
2014-Jul-16 15:21N 32°07' W 081°08'0 0.0
2014-Jul-16 14:27N 32°07' W 081°08'0 0.0
2014-Jul-16 13:34N 32°07' W 081°08'0 0.0
2014-Jul-16 12:33N 32°07' W 081°08'0 0.0
2014-Jul-16 11:28N 32°07' W 081°08'0 0.0
2014-Jul-16 10:31N 32°07' W 081°08'0 0.0
2014-Jul-16 09:28N 32°07' W 081°08'0 0.0
2014-Jul-16 06:28N 32°07' W 081°08'0 0.0
2014-Jul-16 05:25N 32°07' W 081°08'0 0.0
2014-Jul-16 04:10N 32°07' W 081°08'1 1.2
2014-Jul-16 03:33N 32°07' W 081°08'6 5.6
2014-Jul-16 02:33N 32°06' W 081°01'7 7.1
2014-Jul-16 01:34N 32°02' W 080°54'387 8.4
2014-Jul-14 03:32N 36°47' W 075°36'1515.4
2014-Jul-14 02:32N 36°53' W 075°54'1111.0
2014-Jul-14 01:32N 36°58' W 076°06'1110.9
2014-Jul-14 00:29N 36°57' W 076°20'2 1.2
2014-Jul-13 23:14N 36°56' W 076°20'0 0.0
2014-Jul-13 22:11N 36°56' W 076°20'0 0.0
2014-Jul-13 14:17N 36°56' W 076°20'0 0.0
2014-Jul-13 13:26N 36°56' W 076°20'0 0.0
2014-Jul-13 11:33N 36°56' W 076°20'4 3.5
2014-Jul-13 10:32N 36°59' W 076°19'1111.6
2014-Jul-13 09:33N 36°58' W 076°05'1010.1
2014-Jul-13 08:33N 36°54' W 075°54'10 9.5
2014-Jul-13 07:33N 36°49' W 075°43'1311.2
2014-Jul-13 06:21N 36°53' W 075°27'1012.6
2014-Jul-13 05:33N 36°59' W 075°17'1312.9
2014-Jul-13 04:34N 37°09' W 075°08'1210.7
2014-Jul-13 03:28N 37°19' W 074°60'1415.0
2014-Jul-13 02:33N 37°31' W 074°50'1211.8
2014-Jul-13 01:33N 37°40' W 074°42'1110.9
2014-Jul-13 00:33N 37°49' W 074°34'1212.4
2014-Jul-12 23:33N 37°60' W 074°25'1312.5
2014-Jul-12 22:32N 38°12' W 074°20'1312.7
2014-Jul-12 21:33N 38°23' W 074°14'1312.7
2014-Jul-12 20:33N 38°36' W 074°09'1413.7
2014-Jul-12 19:34N 38°48' W 074°03'1413.7
2014-Jul-12 18:33N 39°01' W 073°57'1413.6
2014-Jul-12 17:33N 39°15' W 073°56'1413.5
2014-Jul-12 16:33N 39°28' W 073°54'1413.6
2014-Jul-12 15:33N 39°42' W 073°53'1413.5
2014-Jul-12 14:33N 39°56' W 073°52'1313.4
2014-Jul-12 13:33N 40°09' W 073°50'1514.9
2014-Jul-12 12:33N 40°24' W 073°48'1111.4
2014-Jul-12 11:33N 40°31' W 073°60'9 8.7
2014-Jul-12 10:34N 40°39' W 074°05'5 4.5
2014-Jul-12 09:33N 40°39' W 074°11'0 0.5
2014-Jul-12 08:32N 40°39' W 074°11'0 0.0
2014-Jul-12 07:32N 40°39' W 074°11'0 0.0
2014-Jul-12 06:32N 40°39' W 074°11'0 0.0
2014-Jul-12 05:32N 40°39' W 074°11'0 0.0
2014-Jul-12 04:32N 40°39' W 074°11'0 0.0
2014-Jul-12 03:32N 40°39' W 074°11'0 0.0
2014-Jul-12 02:32N 40°39' W 074°11'0 0.0
2014-Jul-12 01:32N 40°39' W 074°11'0 0.0
2014-Jul-12 00:32N 40°39' W 074°11'0 0.0
2014-Jul-11 23:32N 40°39' W 074°11'0 0.0
2014-Jul-11 22:32N 40°39' W 074°11'0 0.0
2014-Jul-11 21:32N 40°39' W 074°11'0 0.0
2014-Jul-11 20:32N 40°39' W 074°11'0 0.0
2014-Jul-11 19:32N 40°39' W 074°11'0 0.0
2014-Jul-11 18:32N 40°39' W 074°11'0 0.0
2014-Jul-11 17:32N 40°39' W 074°11'0 0.0
2014-Jul-11 16:32N 40°39' W 074°11'3 2.8
2014-Jul-11 15:33N 40°39' W 074°08'5 4.9
2014-Jul-11 14:33N 40°36' W 074°02'1211.9
2014-Jul-11 13:34N 40°28' W 073°51'6 5.8
2014-Jul-11 12:33N 40°23' W 073°47'8 7.9
2014-Jul-11 11:33N 40°15' W 073°45'1111.4
2014-Jul-11 10:33N 40°04' W 073°43'1111.1
2014-Jul-11 09:34N 39°53' W 073°42'1414.2
2014-Jul-11 08:33N 39°39' W 073°41'1414.2
2014-Jul-11 07:33N 39°24' W 073°41'1514.1
2014-Jul-11 06:30N 39°10' W 073°41'1314.1
2014-Jul-11 05:33N 38°56' W 073°42'1714.2
2014-Jul-11 04:22N 38°39' W 073°42'  
Track history (hours):
 
Tides and Currents Weather Stations Pressure Air Temp Water Temp Dewpoint Dewpoint Depression Visibility Wind Speed Wind Dir Waves Ship Positions

Nyk Deneb

Last reported at 2014-Jul-17 08:06 UTC. Time now 2014-Jul-25 08:59 UTC.
Position N 32°02' W 080°50'.
Warning: this ship's position is 8 days out of date.

Length 294 m; draft 11.7 m.

Type: Ship (hazmat cat A). MMSI: 355717000.

Date/timePositionNaut miles runAvg speedWind from/ knotsBaromVisibWave heightAir tempDewpointWater temp
2014-Jul-17 08:06N 32°02' W 080°50'712.1
2014-Jul-17 07:34N 32°04' W 080°58'7 7.2
2014-Jul-17 06:34N 32°06' W 081°06'2 2.4
2014-Jul-17 05:31N 32°07' W 081°08'0 0.0
2014-Jul-16 23:31N 32°07' W 081°08'0 0.0
2014-Jul-16 22:31N 32°07' W 081°08'0 0.0
2014-Jul-16 21:22N 32°07' W 081°08'0 0.0
2014-Jul-16 20:28N 32°07' W 081°08'0 0.0
2014-Jul-16 18:19N 32°07' W 081°08'0 0.0
2014-Jul-16 17:30N 32°07' W 081°08'0 0.0
2014-Jul-16 16:09N 32°07' W 081°08'0 0.0
2014-Jul-16 15:21N 32°07' W 081°08'0 0.0
2014-Jul-16 14:27N 32°07' W 081°08'0 0.0
2014-Jul-16 13:34N 32°07' W 081°08'0 0.0
2014-Jul-16 12:33N 32°07' W 081°08'0 0.0
2014-Jul-16 11:28N 32°07' W 081°08'0 0.0
2014-Jul-16 10:31N 32°07' W 081°08'0 0.0
2014-Jul-16 09:28N 32°07' W 081°08'0 0.0
2014-Jul-16 06:28N 32°07' W 081°08'0 0.0
2014-Jul-16 05:25N 32°07' W 081°08'0 0.0
2014-Jul-16 04:10N 32°07' W 081°08'1 1.2
2014-Jul-16 03:33N 32°07' W 081°08'6 5.6
2014-Jul-16 02:33N 32°06' W 081°01'7 7.1
2014-Jul-16 01:34N 32°02' W 080°54'387 8.4
2014-Jul-14 03:32N 36°47' W 075°36'1515.4
2014-Jul-14 02:32N 36°53' W 075°54'1111.0
2014-Jul-14 01:32N 36°58' W 076°06'1110.9
2014-Jul-14 00:29N 36°57' W 076°20'2 1.2
2014-Jul-13 23:14N 36°56' W 076°20'0 0.0
2014-Jul-13 22:11N 36°56' W 076°20'0 0.0
2014-Jul-13 14:17N 36°56' W 076°20'0 0.0
2014-Jul-13 13:26N 36°56' W 076°20'0 0.0
2014-Jul-13 11:33N 36°56' W 076°20'4 3.5
2014-Jul-13 10:32N 36°59' W 076°19'1111.6
2014-Jul-13 09:33N 36°58' W 076°05'1010.1
2014-Jul-13 08:33N 36°54' W 075°54'10 9.5
2014-Jul-13 07:33N 36°49' W 075°43'1311.2
2014-Jul-13 06:21N 36°53' W 075°27'1012.6
2014-Jul-13 05:33N 36°59' W 075°17'1312.9
2014-Jul-13 04:34N 37°09' W 075°08'1210.7
2014-Jul-13 03:28N 37°19' W 074°60'1415.0
2014-Jul-13 02:33N 37°31' W 074°50'1211.8
2014-Jul-13 01:33N 37°40' W 074°42'1110.9
2014-Jul-13 00:33N 37°49' W 074°34'1212.4
2014-Jul-12 23:33N 37°60' W 074°25'1312.5
2014-Jul-12 22:32N 38°12' W 074°20'1312.7
2014-Jul-12 21:33N 38°23' W 074°14'1312.7
2014-Jul-12 20:33N 38°36' W 074°09'1413.7
2014-Jul-12 19:34N 38°48' W 074°03'1413.7
2014-Jul-12 18:33N 39°01' W 073°57'1413.6
2014-Jul-12 17:33N 39°15' W 073°56'1413.5
2014-Jul-12 16:33N 39°28' W 073°54'1413.6
2014-Jul-12 15:33N 39°42' W 073°53'1413.5
2014-Jul-12 14:33N 39°56' W 073°52'1313.4
2014-Jul-12 13:33N 40°09' W 073°50'1514.9
2014-Jul-12 12:33N 40°24' W 073°48'1111.4
2014-Jul-12 11:33N 40°31' W 073°60'9 8.7
2014-Jul-12 10:34N 40°39' W 074°05'5 4.5
2014-Jul-12 09:33N 40°39' W 074°11'0 0.5
2014-Jul-12 08:32N 40°39' W 074°11'0 0.0
2014-Jul-12 07:32N 40°39' W 074°11'0 0.0
2014-Jul-12 06:32N 40°39' W 074°11'0 0.0
2014-Jul-12 05:32N 40°39' W 074°11'0 0.0
2014-Jul-12 04:32N 40°39' W 074°11'0 0.0
2014-Jul-12 03:32N 40°39' W 074°11'0 0.0
2014-Jul-12 02:32N 40°39' W 074°11'0 0.0
2014-Jul-12 01:32N 40°39' W 074°11'0 0.0
2014-Jul-12 00:32N 40°39' W 074°11'0 0.0
2014-Jul-11 23:32N 40°39' W 074°11'0 0.0
2014-Jul-11 22:32N 40°39' W 074°11'0 0.0
2014-Jul-11 21:32N 40°39' W 074°11'0 0.0
2014-Jul-11 20:32N 40°39' W 074°11'0 0.0
2014-Jul-11 19:32N 40°39' W 074°11'0 0.0
2014-Jul-11 18:32N 40°39' W 074°11'0 0.0
2014-Jul-11 17:32N 40°39' W 074°11'0 0.0
2014-Jul-11 16:32N 40°39' W 074°11'3 2.8
2014-Jul-11 15:33N 40°39' W 074°08'5 4.9
2014-Jul-11 14:33N 40°36' W 074°02'1211.9
2014-Jul-11 13:34N 40°28' W 073°51'6 5.8
2014-Jul-11 12:33N 40°23' W 073°47'8 7.9
2014-Jul-11 11:33N 40°15' W 073°45'1111.4
2014-Jul-11 10:33N 40°04' W 073°43'1111.1
2014-Jul-11 09:34N 39°53' W 073°42'1414.2
2014-Jul-11 08:33N 39°39' W 073°41'1414.2
2014-Jul-11 07:33N 39°24' W 073°41'1514.1
2014-Jul-11 06:30N 39°10' W 073°41'1314.1
2014-Jul-11 05:33N 38°56' W 073°42'1714.2
2014-Jul-11 04:22N 38°39' W 073°42'  

Dump ship's entire track history